sensor_id;sensor_type;location;lat;lon;timestamp;pressure;altitude;pressure_sealevel;temperature;humidity
43450;BME280;29041;42.266;23.110;2023-01-30T00:01:32;96098.78;;;0.60;88.45
43450;BME280;29041;42.266;23.110;2023-01-30T00:04:20;96069.66;;;0.28;89.27
43450;BME280;29041;42.266;23.110;2023-01-30T00:07:07;96085.88;;;0.64;88.01
43450;BME280;29041;42.266;23.110;2023-01-30T00:09:54;96092.34;;;0.51;90.01
43450;BME280;29041;42.266;23.110;2023-01-30T00:12:41;96096.38;;;0.31;91.49
43450;BME280;29041;42.266;23.110;2023-01-30T00:15:28;96100.41;;;0.39;90.90
43450;BME280;29041;42.266;23.110;2023-01-30T00:18:17;96100.28;;;0.51;90.73
43450;BME280;29041;42.266;23.110;2023-01-30T00:21:05;96099.69;;;0.71;89.66
43450;BME280;29041;42.266;23.110;2023-01-30T00:23:53;96096.03;;;0.77;89.52
43450;BME280;29041;42.266;23.110;2023-01-30T00:26:40;96092.63;;;0.55;90.99
43450;BME280;29041;42.266;23.110;2023-01-30T00:29:27;96087.03;;;0.73;89.91
43450;BME280;29041;42.266;23.110;2023-01-30T00:32:14;96090.63;;;0.67;88.93
43450;BME280;29041;42.266;23.110;2023-01-30T00:35:03;96084.06;;;0.70;89.18
43450;BME280;29041;42.266;23.110;2023-01-30T00:37:52;96094.59;;;0.97;87.85
43450;BME280;29041;42.266;23.110;2023-01-30T00:40:39;96087.50;;;1.03;88.17
43450;BME280;29041;42.266;23.110;2023-01-30T00:43:26;96086.19;;;1.00;89.19
43450;BME280;29041;42.266;23.110;2023-01-30T00:46:33;96095.09;;;0.89;90.39
43450;BME280;29041;42.266;23.110;2023-01-30T00:49:38;96083.78;;;0.99;89.56
43450;BME280;29041;42.266;23.110;2023-01-30T00:52:26;96082.25;;;0.75;92.81
43450;BME280;29041;42.266;23.110;2023-01-30T00:55:13;96076.34;;;0.63;94.08
43450;BME280;29041;42.266;23.110;2023-01-30T00:58:39;96080.63;;;0.69;93.98
43450;BME280;29041;42.266;23.110;2023-01-30T01:01:45;96046.72;;;0.34;92.67
43450;BME280;29041;42.266;23.110;2023-01-30T01:04:47;96077.22;;;0.46;92.28
43450;BME280;29041;42.266;23.110;2023-01-30T01:07:42;96022.44;;;0.09;92.74
43450;BME280;29041;42.266;23.110;2023-01-30T01:10:44;96025.41;;;0.40;92.09
43450;BME280;29041;42.266;23.110;2023-01-30T01:16:21;96039.06;;;0.32;92.77
43450;BME280;29041;42.266;23.110;2023-01-30T01:19:55;96014.09;;;0.18;90.65
43450;BME280;29041;42.266;23.110;2023-01-30T01:22:58;96070.25;;;0.35;90.89
43450;BME280;29041;42.266;23.110;2023-01-30T01:26:04;96023.28;;;0.10;91.18
43450;BME280;29041;42.266;23.110;2023-01-30T01:28:56;96019.59;;;0.11;91.89
43450;BME280;29041;42.266;23.110;2023-01-30T01:31:46;96050.66;;;0.31;91.51
43450;BME280;29041;42.266;23.110;2023-01-30T01:34:48;96046.69;;;0.56;90.38
43450;BME280;29041;42.266;23.110;2023-01-30T01:37:35;96043.72;;;0.47;91.40
43450;BME280;29041;42.266;23.110;2023-01-30T01:40:24;96034.44;;;0.44;91.31
43450;BME280;29041;42.266;23.110;2023-01-30T01:43:31;96034.38;;;0.39;91.10
43450;BME280;29041;42.266;23.110;2023-01-30T01:46:21;96034.66;;;0.43;89.54
43450;BME280;29041;42.266;23.110;2023-01-30T01:49:35;96025.50;;;0.51;90.98
43450;BME280;29041;42.266;23.110;2023-01-30T01:52:23;96032.59;;;0.45;90.81
43450;BME280;29041;42.266;23.110;2023-01-30T01:55:10;96027.03;;;0.46;89.41
43450;BME280;29041;42.266;23.110;2023-01-30T01:58:03;96023.81;;;0.72;88.68
43450;BME280;29041;42.266;23.110;2023-01-30T02:00:56;96032.44;;;0.57;87.90
43450;BME280;29041;42.266;23.110;2023-01-30T02:03:46;96024.53;;;0.62;89.46
43450;BME280;29041;42.266;23.110;2023-01-30T02:06:36;96026.16;;;0.68;90.87
43450;BME280;29041;42.266;23.110;2023-01-30T02:15:08;96022.75;;;1.05;87.31
43450;BME280;29041;42.266;23.110;2023-01-30T02:23:25;95997.06;;;0.63;89.48
43450;BME280;29041;42.266;23.110;2023-01-30T02:33:19;96006.94;;;1.10;87.13
43450;BME280;29041;42.266;23.110;2023-01-30T02:36:16;96010.84;;;1.03;87.10
43450;BME280;29041;42.266;23.110;2023-01-30T02:39:18;96001.69;;;0.78;89.77
43450;BME280;29041;42.266;23.110;2023-01-30T02:42:13;96008.38;;;0.91;89.91
43450;BME280;29041;42.266;23.110;2023-01-30T02:45:18;96015.44;;;0.80;90.14
43450;BME280;29041;42.266;23.110;2023-01-30T02:48:29;96011.31;;;0.62;92.12
43450;BME280;29041;42.266;23.110;2023-01-30T02:51:26;96015.53;;;0.90;89.67
43450;BME280;29041;42.266;23.110;2023-01-30T02:54:15;96010.19;;;0.85;90.01
43450;BME280;29041;42.266;23.110;2023-01-30T02:57:16;96017.59;;;0.83;91.05
43450;BME280;29041;42.266;23.110;2023-01-30T03:00:09;96011.34;;;0.67;90.60
43450;BME280;29041;42.266;23.110;2023-01-30T03:03:12;96018.47;;;0.34;90.46
43450;BME280;29041;42.266;23.110;2023-01-30T03:06:49;96009.31;;;0.14;91.64
43450;BME280;29041;42.266;23.110;2023-01-30T03:09:47;96003.38;;;0.02;92.18
43450;BME280;29041;42.266;23.110;2023-01-30T03:12:42;95999.88;;;0.24;91.16
43450;BME280;29041;42.266;23.110;2023-01-30T03:15:34;96006.50;;;0.54;89.95
43450;BME280;29041;42.266;23.110;2023-01-30T03:18:26;96005.00;;;0.63;89.30
43450;BME280;29041;42.266;23.110;2023-01-30T03:21:13;96007.22;;;0.44;89.64
43450;BME280;29041;42.266;23.110;2023-01-30T03:24:00;96001.34;;;0.37;89.81
43450;BME280;29041;42.266;23.110;2023-01-30T03:26:49;95999.75;;;0.36;88.91
43450;BME280;29041;42.266;23.110;2023-01-30T03:29:39;96008.47;;;0.69;89.22
43450;BME280;29041;42.266;23.110;2023-01-30T03:32:26;95994.69;;;0.61;88.48
43450;BME280;29041;42.266;23.110;2023-01-30T03:35:15;96006.16;;;0.45;88.55
43450;BME280;29041;42.266;23.110;2023-01-30T03:38:03;96014.69;;;0.52;87.66
43450;BME280;29041;42.266;23.110;2023-01-30T03:40:51;96020.41;;;0.17;88.76
43450;BME280;29041;42.266;23.110;2023-01-30T03:43:38;96001.84;;;0.06;88.16
43450;BME280;29041;42.266;23.110;2023-01-30T03:46:25;96004.84;;;0.15;88.55
43450;BME280;29041;42.266;23.110;2023-01-30T03:49:15;96006.09;;;0.07;88.44
43450;BME280;29041;42.266;23.110;2023-01-30T03:52:04;96002.00;;;0.22;88.83
43450;BME280;29041;42.266;23.110;2023-01-30T03:54:51;95989.78;;;0.15;88.43
43450;BME280;29041;42.266;23.110;2023-01-30T03:57:39;95979.47;;;0.14;88.05
43450;BME280;29041;42.266;23.110;2023-01-30T04:00:26;95992.97;;;0.18;88.47
43450;BME280;29041;42.266;23.110;2023-01-30T04:03:14;95983.66;;;0.10;89.33
43450;BME280;29041;42.266;23.110;2023-01-30T04:06:01;95985.06;;;0.18;88.47
43450;BME280;29041;42.266;23.110;2023-01-30T04:08:52;95967.97;;;0.58;87.35
43450;BME280;29041;42.266;23.110;2023-01-30T04:11:39;95974.88;;;0.64;86.83
43450;BME280;29041;42.266;23.110;2023-01-30T04:14:26;95974.34;;;0.29;89.22
43450;BME280;29041;42.266;23.110;2023-01-30T04:17:13;95972.00;;;0.33;88.58
43450;BME280;29041;42.266;23.110;2023-01-30T04:20:01;95968.91;;;0.41;88.34
43450;BME280;29041;42.266;23.110;2023-01-30T04:22:48;95976.47;;;0.33;88.97
43450;BME280;29041;42.266;23.110;2023-01-30T04:25:37;95972.97;;;0.22;90.03
43450;BME280;29041;42.266;23.110;2023-01-30T04:28:24;95971.59;;;0.19;89.62
43450;BME280;29041;42.266;23.110;2023-01-30T04:31:11;95957.75;;;0.07;89.90
43450;BME280;29041;42.266;23.110;2023-01-30T04:34:01;95976.78;;;-0.19;91.64
43450;BME280;29041;42.266;23.110;2023-01-30T04:36:48;95971.63;;;-0.08;90.70
43450;BME280;29041;42.266;23.110;2023-01-30T04:39:35;95965.88;;;-0.27;90.94
43450;BME280;29041;42.266;23.110;2023-01-30T04:42:25;95961.88;;;-0.30;90.27
43450;BME280;29041;42.266;23.110;2023-01-30T04:45:14;95977.97;;;-0.04;87.94
43450;BME280;29041;42.266;23.110;2023-01-30T04:48:01;95974.25;;;-0.08;88.79
43450;BME280;29041;42.266;23.110;2023-01-30T04:50:52;95948.22;;;0.06;86.79
43450;BME280;29041;42.266;23.110;2023-01-30T04:53:41;95953.81;;;-0.18;86.56
43450;BME280;29041;42.266;23.110;2023-01-30T04:56:28;95980.44;;;0.03;86.35
43450;BME280;29041;42.266;23.110;2023-01-30T04:59:42;95975.75;;;0.37;85.69
43450;BME280;29041;42.266;23.110;2023-01-30T05:02:29;95985.16;;;0.28;86.98
43450;BME280;29041;42.266;23.110;2023-01-30T05:05:17;95988.53;;;-0.04;87.84
43450;BME280;29041;42.266;23.110;2023-01-30T05:08:06;95984.63;;;-0.24;88.09
43450;BME280;29041;42.266;23.110;2023-01-30T05:10:53;95978.25;;;-0.28;89.29
43450;BME280;29041;42.266;23.110;2023-01-30T05:13:43;95976.13;;;-0.31;89.01
43450;BME280;29041;42.266;23.110;2023-01-30T05:16:33;95967.25;;;-0.20;88.13
43450;BME280;29041;42.266;23.110;2023-01-30T05:19:20;95975.00;;;-0.13;88.34
43450;BME280;29041;42.266;23.110;2023-01-30T05:22:07;95960.75;;;-0.34;88.27
43450;BME280;29041;42.266;23.110;2023-01-30T05:24:55;95958.88;;;-0.39;87.37
43450;BME280;29041;42.266;23.110;2023-01-30T05:27:46;95965.78;;;-0.10;88.29
43450;BME280;29041;42.266;23.110;2023-01-30T05:30:46;95974.91;;;0.04;87.03
43450;BME280;29041;42.266;23.110;2023-01-30T05:33:45;95979.53;;;-0.08;87.29
43450;BME280;29041;42.266;23.110;2023-01-30T05:36:42;95975.16;;;-0.20;87.83
43450;BME280;29041;42.266;23.110;2023-01-30T05:39:42;95973.09;;;-0.18;87.16
43450;BME280;29041;42.266;23.110;2023-01-30T05:48:13;95967.00;;;-0.18;87.53
43450;BME280;29041;42.266;23.110;2023-01-30T05:51:15;95964.94;;;0.44;85.29
43450;BME280;29041;42.266;23.110;2023-01-30T05:54:11;95983.41;;;0.39;84.70
43450;BME280;29041;42.266;23.110;2023-01-30T05:57:14;95991.22;;;0.01;86.83
43450;BME280;29041;42.266;23.110;2023-01-30T06:00:14;95948.09;;;0.18;85.93
43450;BME280;29041;42.266;23.110;2023-01-30T06:03:11;95953.13;;;-0.08;86.01
43450;BME280;29041;42.266;23.110;2023-01-30T06:08:38;95974.34;;;0.29;85.16
43450;BME280;29041;42.266;23.110;2023-01-30T06:11:42;95951.53;;;0.18;85.69
43450;BME280;29041;42.266;23.110;2023-01-30T06:14:37;95961.00;;;0.46;84.74
43450;BME280;29041;42.266;23.110;2023-01-30T06:17:28;95931.31;;;-0.26;86.49
43450;BME280;29041;42.266;23.110;2023-01-30T06:20:40;95972.72;;;0.28;85.83
43450;BME280;29041;42.266;23.110;2023-01-30T06:23:32;95965.72;;;0.12;86.53
43450;BME280;29041;42.266;23.110;2023-01-30T06:26:32;95960.72;;;-0.61;89.13
43450;BME280;29041;42.266;23.110;2023-01-30T06:29:20;95955.13;;;-0.43;88.65
43450;BME280;29041;42.266;23.110;2023-01-30T06:32:08;95978.25;;;0.22;85.59
43450;BME280;29041;42.266;23.110;2023-01-30T06:34:56;95969.72;;;0.14;85.16
43450;BME280;29041;42.266;23.110;2023-01-30T06:37:43;95931.22;;;-0.09;85.98
43450;BME280;29041;42.266;23.110;2023-01-30T06:40:31;95965.16;;;0.37;86.45
43450;BME280;29041;42.266;23.110;2023-01-30T06:43:21;95969.47;;;0.16;86.67
43450;BME280;29041;42.266;23.110;2023-01-30T06:46:08;95958.78;;;0.06;86.23
43450;BME280;29041;42.266;23.110;2023-01-30T06:49:17;95938.38;;;-0.04;86.84
43450;BME280;29041;42.266;23.110;2023-01-30T06:52:12;95923.28;;;-0.09;86.70
43450;BME280;29041;42.266;23.110;2023-01-30T06:55:05;95931.47;;;-0.10;87.29
43450;BME280;29041;42.266;23.110;2023-01-30T07:12:28;95970.06;;;-0.04;87.97
43450;BME280;29041;42.266;23.110;2023-01-30T07:31:13;95949.53;;;-0.24;88.02
43450;BME280;29041;42.266;23.110;2023-01-30T08:34:50;95986.16;;;0.22;89.82
43450;BME280;29041;42.266;23.110;2023-01-30T08:37:54;95979.31;;;0.26;89.40
43450;BME280;29041;42.266;23.110;2023-01-30T08:45:28;95923.69;;;0.38;87.24
43450;BME280;29041;42.266;23.110;2023-01-30T09:10:52;95907.81;;;0.70;85.13
43450;BME280;29041;42.266;23.110;2023-01-30T09:14:08;95949.19;;;0.97;87.04
43450;BME280;29041;42.266;23.110;2023-01-30T09:24:59;95949.00;;;1.09;84.68
43450;BME280;29041;42.266;23.110;2023-01-30T09:32:25;95926.78;;;1.10;84.64
43450;BME280;29041;42.266;23.110;2023-01-30T09:35:28;95877.94;;;1.28;83.09
43450;BME280;29041;42.266;23.110;2023-01-30T09:38:16;95926.22;;;1.66;82.04
43450;BME280;29041;42.266;23.110;2023-01-30T09:41:27;95923.09;;;1.85;84.48
43450;BME280;29041;42.266;23.110;2023-01-30T09:47:56;95880.22;;;1.88;79.33
43450;BME280;29041;42.266;23.110;2023-01-30T09:51:17;95870.41;;;1.83;78.30
43450;BME280;29041;42.266;23.110;2023-01-30T09:54:16;95884.44;;;1.84;80.41
43450;BME280;29041;42.266;23.110;2023-01-30T09:57:19;95912.16;;;1.50;81.86
43450;BME280;29041;42.266;23.110;2023-01-30T10:00:12;95883.31;;;1.54;80.80
43450;BME280;29041;42.266;23.110;2023-01-30T10:03:08;95892.75;;;1.19;80.30
43450;BME280;29041;42.266;23.110;2023-01-30T10:06:01;95896.50;;;1.33;80.84
43450;BME280;29041;42.266;23.110;2023-01-30T10:08:56;95897.59;;;1.48;79.97
43450;BME280;29041;42.266;23.110;2023-01-30T10:12:00;95883.50;;;1.32;80.48
43450;BME280;29041;42.266;23.110;2023-01-30T10:15:20;95901.72;;;1.23;80.65
43450;BME280;29041;42.266;23.110;2023-01-30T10:21:59;95878.16;;;1.11;80.54
43450;BME280;29041;42.266;23.110;2023-01-30T10:59:19;95809.50;;;1.52;79.11
43450;BME280;29041;42.266;23.110;2023-01-30T11:08:22;95768.44;;;1.24;80.47
43450;BME280;29041;42.266;23.110;2023-01-30T11:21:46;95764.78;;;1.71;79.25
43450;BME280;29041;42.266;23.110;2023-01-30T11:24:46;95755.22;;;1.29;78.18
43450;BME280;29041;42.266;23.110;2023-01-30T11:27:59;95735.34;;;1.11;78.39
43450;BME280;29041;42.266;23.110;2023-01-30T11:31:00;95705.50;;;1.26;80.66
43450;BME280;29041;42.266;23.110;2023-01-30T11:34:12;95711.34;;;1.49;80.71
43450;BME280;29041;42.266;23.110;2023-01-30T11:37:30;95699.94;;;1.79;79.01
43450;BME280;29041;42.266;23.110;2023-01-30T11:40:25;95707.59;;;1.14;78.01
43450;BME280;29041;42.266;23.110;2023-01-30T11:43:23;95674.78;;;1.66;77.29
43450;BME280;29041;42.266;23.110;2023-01-30T11:46:22;95726.13;;;1.65;78.12
43450;BME280;29041;42.266;23.110;2023-01-30T11:49:18;95688.25;;;2.01;78.62
43450;BME280;29041;42.266;23.110;2023-01-30T11:52:18;95707.25;;;2.34;77.16
43450;BME280;29041;42.266;23.110;2023-01-30T11:55:23;95690.59;;;2.13;78.01
43450;BME280;29041;42.266;23.110;2023-01-30T11:58:29;95663.59;;;2.05;76.82
43450;BME280;29041;42.266;23.110;2023-01-30T12:01:19;95688.56;;;1.53;77.92
43450;BME280;29041;42.266;23.110;2023-01-30T12:04:10;95702.81;;;1.98;78.72
43450;BME280;29041;42.266;23.110;2023-01-30T12:07:12;95691.22;;;1.68;76.35
43450;BME280;29041;42.266;23.110;2023-01-30T12:10:25;95690.00;;;2.31;74.85
43450;BME280;29041;42.266;23.110;2023-01-30T12:13:18;95673.97;;;2.62;75.80
43450;BME280;29041;42.266;23.110;2023-01-30T12:16:16;95641.91;;;1.98;74.24
43450;BME280;29041;42.266;23.110;2023-01-30T12:25:12;95640.25;;;2.23;74.69
43450;BME280;29041;42.266;23.110;2023-01-30T12:28:29;95623.31;;;2.09;75.21
43450;BME280;29041;42.266;23.110;2023-01-30T12:31:35;95655.16;;;1.98;73.70
43450;BME280;29041;42.266;23.110;2023-01-30T12:34:42;95615.56;;;1.05;76.41
43450;BME280;29041;42.266;23.110;2023-01-30T12:50:53;95636.19;;;1.45;76.16
43450;BME280;29041;42.266;23.110;2023-01-30T12:53:59;95611.31;;;1.61;75.74
43450;BME280;29041;42.266;23.110;2023-01-30T12:57:01;95628.50;;;1.48;75.73
43450;BME280;29041;42.266;23.110;2023-01-30T13:00:28;95566.28;;;1.66;76.29
43450;BME280;29041;42.266;23.110;2023-01-30T13:07:22;95597.44;;;2.00;79.22
43450;BME280;29041;42.266;23.110;2023-01-30T13:10:27;95609.97;;;2.40;75.42
43450;BME280;29041;42.266;23.110;2023-01-30T13:13:24;95581.28;;;2.52;73.55
43450;BME280;29041;42.266;23.110;2023-01-30T13:16:22;95599.44;;;2.29;74.11
43450;BME280;29041;42.266;23.110;2023-01-30T13:19:18;95602.16;;;2.59;72.88
43450;BME280;29041;42.266;23.110;2023-01-30T13:22:15;95556.25;;;1.63;74.50
43450;BME280;29041;42.266;23.110;2023-01-30T13:25:15;95588.41;;;2.01;74.03
43450;BME280;29041;42.266;23.110;2023-01-30T13:28:11;95594.53;;;2.47;70.03
43450;BME280;29041;42.266;23.110;2023-01-30T13:31:00;95587.19;;;3.18;71.33
43450;BME280;29041;42.266;23.110;2023-01-30T13:33:56;95591.66;;;3.23;70.86
43450;BME280;29041;42.266;23.110;2023-01-30T13:36:52;95579.25;;;3.72;69.00
43450;BME280;29041;42.266;23.110;2023-01-30T13:39:45;95585.94;;;3.40;70.78
43450;BME280;29041;42.266;23.110;2023-01-30T13:42:37;95588.09;;;3.62;67.99
43450;BME280;29041;42.266;23.110;2023-01-30T13:45:30;95588.84;;;3.68;64.43
43450;BME280;29041;42.266;23.110;2023-01-30T13:48:31;95583.28;;;3.40;66.56
43450;BME280;29041;42.266;23.110;2023-01-30T13:51:38;95574.97;;;3.17;67.12
43450;BME280;29041;42.266;23.110;2023-01-30T13:54:48;95568.97;;;2.72;67.98
43450;BME280;29041;42.266;23.110;2023-01-30T13:57:44;95568.84;;;1.97;70.90
43450;BME280;29041;42.266;23.110;2023-01-30T14:20:50;95516.84;;;2.91;66.30
43450;BME280;29041;42.266;23.110;2023-01-30T14:45:46;95484.19;;;1.82;70.35
43450;BME280;29041;42.266;23.110;2023-01-30T14:49:19;95505.91;;;1.73;70.70
43450;BME280;29041;42.266;23.110;2023-01-30T14:53:03;95505.19;;;1.57;73.55
43450;BME280;29041;42.266;23.110;2023-01-30T14:56:11;95527.72;;;1.45;71.09
43450;BME280;29041;42.266;23.110;2023-01-30T15:02:36;95493.84;;;1.52;74.83
43450;BME280;29041;42.266;23.110;2023-01-30T15:05:44;95492.00;;;1.52;71.15
43450;BME280;29041;42.266;23.110;2023-01-30T15:15:50;95514.16;;;1.62;74.76
43450;BME280;29041;42.266;23.110;2023-01-30T15:19:08;95500.47;;;1.39;75.04
43450;BME280;29041;42.266;23.110;2023-01-30T15:22:15;95474.94;;;0.98;76.05
43450;BME280;29041;42.266;23.110;2023-01-30T15:25:32;95484.41;;;1.20;77.35
43450;BME280;29041;42.266;23.110;2023-01-30T15:28:33;95509.72;;;1.47;78.71
43450;BME280;29041;42.266;23.110;2023-01-30T15:31:25;95479.28;;;1.60;80.74
43450;BME280;29041;42.266;23.110;2023-01-30T15:34:19;95482.28;;;1.22;77.73
43450;BME280;29041;42.266;23.110;2023-01-30T15:37:15;95509.19;;;1.50;79.46
43450;BME280;29041;42.266;23.110;2023-01-30T15:40:21;95508.69;;;1.37;79.35
43450;BME280;29041;42.266;23.110;2023-01-30T15:43:20;95519.31;;;1.22;80.63
43450;BME280;29041;42.266;23.110;2023-01-30T15:46:20;95511.69;;;1.05;84.10
43450;BME280;29041;42.266;23.110;2023-01-30T15:49:32;95510.09;;;0.88;81.80
43450;BME280;29041;42.266;23.110;2023-01-30T15:52:34;95521.72;;;1.03;82.11
43450;BME280;29041;42.266;23.110;2023-01-30T15:55:24;95521.44;;;1.15;83.17
43450;BME280;29041;42.266;23.110;2023-01-30T16:09:43;95513.03;;;0.71;80.18
43450;BME280;29041;42.266;23.110;2023-01-30T16:13:09;95501.13;;;0.58;80.88
43450;BME280;29041;42.266;23.110;2023-01-30T16:16:17;95502.44;;;0.45;82.59
43450;BME280;29041;42.266;23.110;2023-01-30T16:19:22;95465.97;;;0.06;82.18
43450;BME280;29041;42.266;23.110;2023-01-30T16:22:40;95504.75;;;0.06;84.43
43450;BME280;29041;42.266;23.110;2023-01-30T16:30:00;95509.25;;;0.05;84.44
43450;BME280;29041;42.266;23.110;2023-01-30T16:32:55;95470.59;;;-0.37;85.19
43450;BME280;29041;42.266;23.110;2023-01-30T16:35:59;95490.38;;;-0.40;85.87
43450;BME280;29041;42.266;23.110;2023-01-30T16:39:45;95510.97;;;-0.37;86.15
43450;BME280;29041;42.266;23.110;2023-01-30T16:43:17;95513.38;;;-0.30;85.96
43450;BME280;29041;42.266;23.110;2023-01-30T16:52:03;95500.00;;;0.03;85.52
43450;BME280;29041;42.266;23.110;2023-01-30T16:55:06;95472.53;;;-0.02;85.99
43450;BME280;29041;42.266;23.110;2023-01-30T16:58:11;95441.00;;;-0.60;86.83
43450;BME280;29041;42.266;23.110;2023-01-30T17:01:38;95479.25;;;-0.57;89.29
43450;BME280;29041;42.266;23.110;2023-01-30T17:04:45;95470.69;;;-0.80;89.29
43450;BME280;29041;42.266;23.110;2023-01-30T17:35:16;95508.59;;;-0.33;87.70
43450;BME280;29041;42.266;23.110;2023-01-30T17:38:10;95482.13;;;-0.59;87.66
43450;BME280;29041;42.266;23.110;2023-01-30T17:41:42;95459.78;;;-0.99;89.23
43450;BME280;29041;42.266;23.110;2023-01-30T19:43:10;95438.16;;;-0.33;89.28
43450;BME280;29041;42.266;23.110;2023-01-30T19:46:04;95458.44;;;-0.49;91.81
43450;BME280;29041;42.266;23.110;2023-01-30T19:52:44;95465.81;;;-0.51;91.09
43450;BME280;29041;42.266;23.110;2023-01-30T20:27:34;95431.03;;;-0.42;91.29
43450;BME280;29041;42.266;23.110;2023-01-30T20:30:37;95422.13;;;-0.10;90.35
43450;BME280;29041;42.266;23.110;2023-01-30T20:33:31;95375.81;;;-0.80;87.43
43450;BME280;29041;42.266;23.110;2023-01-30T20:36:42;95422.63;;;-0.19;87.16
43450;BME280;29041;42.266;23.110;2023-01-30T21:38:00;95401.38;;;-1.34;98.59
43450;BME280;29041;42.266;23.110;2023-01-30T21:41:04;95426.66;;;-0.90;96.57
43450;BME280;29041;42.266;23.110;2023-01-30T21:44:11;95445.94;;;-0.79;96.71
43450;BME280;29041;42.266;23.110;2023-01-30T21:47:05;95400.91;;;-1.20;96.45
43450;BME280;29041;42.266;23.110;2023-01-30T21:50:12;95405.31;;;-1.36;97.74
43450;BME280;29041;42.266;23.110;2023-01-30T21:56:29;95427.66;;;-0.96;97.19
43450;BME280;29041;42.266;23.110;2023-01-30T21:59:21;95425.19;;;-1.56;100.00
43450;BME280;29041;42.266;23.110;2023-01-30T22:02:09;95426.47;;;-1.64;100.00
43450;BME280;29041;42.266;23.110;2023-01-30T22:04:56;95447.41;;;-1.41;99.81
43450;BME280;29041;42.266;23.110;2023-01-30T22:07:44;95428.03;;;-1.63;100.00
43450;BME280;29041;42.266;23.110;2023-01-30T22:10:31;95406.66;;;-1.71;99.47
43450;BME280;29041;42.266;23.110;2023-01-30T22:49:05;95422.63;;;-0.24;90.59
43450;BME280;29041;42.266;23.110;2023-01-30T22:51:54;95432.09;;;-0.33;92.86
43450;BME280;29041;42.266;23.110;2023-01-30T22:55:30;95433.16;;;-0.34;91.64
43450;BME280;29041;42.266;23.110;2023-01-30T23:25:35;95402.75;;;-0.62;93.40
43450;BME280;29041;42.266;23.110;2023-01-30T23:28:42;95405.25;;;-0.09;92.09
43450;BME280;29041;42.266;23.110;2023-01-30T23:31:54;95366.06;;;-0.74;94.80
43450;BME280;29041;42.266;23.110;2023-01-30T23:34:42;95398.78;;;-0.65;94.16
43450;BME280;29041;42.266;23.110;2023-01-30T23:49:36;95341.59;;;-0.65;89.31
43450;BME280;29041;42.266;23.110;2023-01-30T23:52:49;95355.84;;;-0.40;88.86
